Time;durP1;ratioP1;P1;durP2;ratioP2;P2;SDS_P1;SDS_P2;PMS_P1;PMS_P2;Temp;Humidity;BMP_temperature;BMP_pressure;BME280_temperature;BME280_humidity;BME280_pressure;Samples;Min_cycle;Max_cycle;Signal;HPM_P1;HPM_P2
2021/10/07 00:01:54;;;;;;;65.57;31.35;;;12.20;99.90;;;;;;5065090;28;20037;-59
2021/10/07 00:04:19;;;;;;;61.63;29.83;;;12.20;99.90;;;;;;5060122;28;20727;-58
2021/10/07 00:06:45;;;;;;;57.72;29.45;;;12.20;99.90;;;;;;5066338;28;20437;-57
2021/10/07 00:09:10;;;;;;;59.50;27.70;;;12.20;99.90;;;;;;5060839;28;20024;-58
2021/10/07 00:11:36;;;;;;;54.53;28.88;;;12.20;99.90;;;;;;5064673;28;20040;-53
2021/10/07 00:14:05;;;;;;;55.72;30.52;;;12.20;99.90;;;;;;5058829;28;20035;-58
2021/10/07 00:16:31;;;;;;;55.80;28.25;;;12.20;99.90;;;;;;5060743;28;20493;-59
2021/10/07 00:18:56;;;;;;;56.70;27.63;;;12.20;99.90;;;;;;5058926;28;20033;-57
2021/10/07 00:21:22;;;;;;;54.45;25.33;;;12.20;99.90;;;;;;5053218;28;20100;-59
2021/10/07 00:26:39;;;;;;;45.25;25.75;;;12.20;99.90;;;;;;5060111;28;20548;-59
2021/10/07 00:29:20;;;;;;;57.83;26.75;;;12.20;99.90;;;;;;5064801;28;20025;-58
2021/10/07 00:31:48;;;;;;;51.15;27.20;;;12.20;99.90;;;;;;5060359;28;20116;-58
2021/10/07 00:37:09;;;;;;;47.55;24.90;;;12.20;99.90;;;;;;5066973;28;20029;-58
2021/10/07 00:39:35;;;;;;;47.47;25.83;;;12.30;99.90;;;;;;5058152;28;20241;-57
2021/10/07 00:42:01;;;;;;;45.15;24.83;;;12.30;99.90;;;;;;5064478;28;20503;-59
2021/10/07 00:44:31;;;;;;;52.95;25.17;;;12.30;99.90;;;;;;5059040;28;20113;-58
2021/10/07 00:47:01;;;;;;;45.80;24.98;;;12.30;99.90;;;;;;5064970;28;20484;-60
2021/10/07 00:49:28;;;;;;;42.53;24.88;;;12.30;99.90;;;;;;5054742;28;20021;-57
2021/10/07 00:51:55;;;;;;;62.75;26.08;;;12.30;99.90;;;;;;5066874;28;20016;-55
2021/10/07 00:54:22;;;;;;;52.22;25.70;;;12.30;99.90;;;;;;5060983;28;20052;-56
2021/10/07 00:56:49;;;;;;;52.78;27.73;;;12.40;99.90;;;;;;5060488;28;20057;-54
2021/10/07 00:59:15;;;;;;;50.38;25.45;;;12.40;99.90;;;;;;5061840;28;20039;-57
2021/10/07 01:01:41;;;;;;;61.75;25.08;;;12.40;99.90;;;;;;5065339;28;20032;-57
2021/10/07 01:04:08;;;;;;;55.30;28.02;;;12.40;99.90;;;;;;5066952;28;20036;-59
2021/10/07 01:06:34;;;;;;;45.88;24.55;;;12.40;99.90;;;;;;5072466;28;20467;-58
2021/10/07 01:09:01;;;;;;;47.42;26.42;;;12.40;99.90;;;;;;5068180;28;20435;-58
2021/10/07 01:11:27;;;;;;;53.35;24.45;;;12.40;99.90;;;;;;5069527;28;20028;-59
2021/10/07 01:13:52;;;;;;;54.40;26.17;;;12.40;99.90;;;;;;5065050;28;20074;-59
2021/10/07 01:16:18;;;;;;;41.08;24.10;;;12.50;99.90;;;;;;5061209;28;20024;-60
2021/10/07 01:18:44;;;;;;;55.53;25.00;;;12.50;99.90;;;;;;5059155;28;20040;-59
2021/10/07 01:21:12;;;;;;;46.65;24.95;;;12.50;99.90;;;;;;5063925;28;20032;-59
2021/10/07 01:23:40;;;;;;;50.83;24.58;;;12.50;99.90;;;;;;5065427;28;20056;-56
2021/10/07 01:26:07;;;;;;;47.47;24.27;;;12.50;99.90;;;;;;5066376;28;20563;-57
2021/10/07 01:28:33;;;;;;;51.47;25.08;;;12.50;99.90;;;;;;5065157;28;20480;-57
2021/10/07 01:30:59;;;;;;;55.28;25.90;;;12.50;99.90;;;;;;5066092;28;20075;-58
2021/10/07 01:33:24;;;;;;;43.08;22.80;;;12.50;99.90;;;;;;5071038;28;20033;-59
2021/10/07 01:35:50;;;;;;;56.72;25.45;;;12.60;99.90;;;;;;5064612;28;20056;-55
2021/10/07 01:38:15;;;;;;;48.08;23.30;;;12.50;99.90;;;;;;5065547;28;20115;-56
2021/10/07 01:40:41;;;;;;;47.15;23.92;;;12.60;99.90;;;;;;5064638;28;20028;-58
2021/10/07 01:43:07;;;;;;;47.28;23.92;;;12.60;99.90;;;;;;5063188;28;20051;-58
2021/10/07 01:45:32;;;;;;;49.63;22.95;;;12.60;99.90;;;;;;5066255;28;20123;-55
2021/10/07 01:47:58;;;;;;;46.97;23.40;;;12.50;99.90;;;;;;5066804;28;20032;-59
2021/10/07 01:50:23;;;;;;;52.58;24.08;;;12.60;99.90;;;;;;5063456;28;20029;-57
2021/10/07 01:52:49;;;;;;;51.40;25.70;;;12.60;99.90;;;;;;5062155;28;20036;-59
2021/10/07 01:55:14;;;;;;;54.22;25.33;;;12.60;99.90;;;;;;5063477;28;20361;-59
2021/10/07 01:57:40;;;;;;;45.13;21.88;;;12.50;99.90;;;;;;5056496;28;20068;-58
2021/10/07 02:00:09;;;;;;;47.33;23.25;;;12.50;99.90;;;;;;5065697;28;20040;-59
2021/10/07 02:02:34;;;;;;;55.53;26.85;;;12.50;99.90;;;;;;5069123;28;20017;-59
2021/10/07 02:05:01;;;;;;;47.10;25.95;;;12.50;99.90;;;;;;5064985;28;20052;-60
2021/10/07 02:07:26;;;;;;;47.28;26.35;;;12.50;99.90;;;;;;5064414;28;20108;-54
2021/10/07 02:09:52;;;;;;;52.17;28.38;;;12.50;99.90;;;;;;5060638;28;20021;-58
2021/10/07 02:12:18;;;;;;;53.63;28.42;;;12.40;99.90;;;;;;5066062;28;20028;-57
2021/10/07 02:14:43;;;;;;;72.75;27.50;;;12.40;99.90;;;;;;5066266;28;20447;-56
2021/10/07 02:17:09;;;;;;;59.13;27.45;;;12.50;99.90;;;;;;5065698;28;20044;-57
2021/10/07 02:19:34;;;;;;;62.03;31.58;;;12.50;99.90;;;;;;5067948;28;20070;-55
2021/10/07 02:22:00;;;;;;;54.90;27.30;;;12.50;99.90;;;;;;5064935;28;20036;-57
2021/10/07 02:24:26;;;;;;;59.13;27.63;;;12.50;99.90;;;;;;5061585;28;20024;-59
2021/10/07 02:26:51;;;;;;;57.83;28.95;;;12.50;99.90;;;;;;5065642;28;20046;-59
2021/10/07 02:29:17;;;;;;;55.33;28.23;;;12.50;99.90;;;;;;5060809;28;20048;-59
2021/10/07 02:31:42;;;;;;;56.00;27.85;;;12.60;99.90;;;;;;5053443;28;20028;-57
2021/10/07 02:34:08;;;;;;;56.53;30.30;;;12.60;99.90;;;;;;5066346;28;20024;-58
2021/10/07 02:36:33;;;;;;;59.30;28.45;;;12.60;99.90;;;;;;5058122;28;20029;-60
2021/10/07 02:38:59;;;;;;;54.53;29.08;;;12.60;99.90;;;;;;5058873;28;20691;-59
2021/10/07 02:41:26;;;;;;;62.22;32.50;;;12.60;99.90;;;;;;5061861;28;20032;-58
2021/10/07 02:43:52;;;;;;;65.10;31.83;;;12.60;99.90;;;;;;5070367;28;20210;-57
2021/10/07 02:46:17;;;;;;;64.00;33.25;;;12.50;99.90;;;;;;5067044;28;20392;-58
2021/10/07 02:48:44;;;;;;;64.55;34.92;;;12.50;99.90;;;;;;5065136;28;20033;-59
2021/10/07 02:51:10;;;;;;;69.45;33.08;;;12.50;99.90;;;;;;5055730;28;20021;-58
2021/10/07 02:53:37;;;;;;;67.03;34.72;;;12.40;99.90;;;;;;5071675;23;20140;-62
2021/10/07 02:56:04;;;;;;;73.07;35.03;;;12.50;99.90;;;;;;5039043;28;20470;-62
2021/10/07 02:58:30;;;;;;;66.25;34.15;;;12.40;99.90;;;;;;5036982;28;20485;-63
2021/10/07 03:00:55;;;;;;;76.28;37.38;;;12.50;99.90;;;;;;5041933;28;20037;-63
2021/10/07 03:03:21;;;;;;;72.18;36.40;;;12.40;99.90;;;;;;5053454;28;20046;-60
2021/10/07 03:05:47;;;;;;;77.97;35.67;;;12.50;99.90;;;;;;5059511;28;20021;-62
2021/10/07 03:08:12;;;;;;;78.15;34.38;;;12.40;99.90;;;;;;5065321;28;20078;-63
2021/10/07 03:10:38;;;;;;;66.15;33.83;;;12.40;99.90;;;;;;5056585;28;20033;-62
2021/10/07 03:13:04;;;;;;;80.97;37.33;;;12.50;99.90;;;;;;5052933;28;20033;-63
2021/10/07 03:15:29;;;;;;;65.18;34.08;;;12.40;99.90;;;;;;5060416;28;20089;-63
2021/10/07 03:17:55;;;;;;;71.38;36.20;;;12.40;99.90;;;;;;5054612;28;20121;-63
2021/10/07 03:20:20;;;;;;;82.35;38.10;;;12.40;99.90;;;;;;5061487;28;20032;-61
2021/10/07 03:22:46;;;;;;;77.90;37.65;;;12.40;99.90;;;;;;5061437;28;20458;-60
2021/10/07 03:25:12;;;;;;;80.95;38.17;;;12.40;99.90;;;;;;5054352;28;20501;-62
2021/10/07 03:27:37;;;;;;;93.22;38.92;;;12.40;99.90;;;;;;5058227;28;20464;-61
2021/10/07 03:30:04;;;;;;;86.30;40.38;;;12.40;99.90;;;;;;5061893;28;20036;-61
2021/10/07 03:32:30;;;;;;;81.28;37.95;;;12.40;99.90;;;;;;5061287;28;20033;-62
2021/10/07 03:34:55;;;;;;;93.53;42.22;;;12.40;99.90;;;;;;5067457;28;20107;-62
2021/10/07 03:37:21;;;;;;;86.93;38.97;;;12.30;99.90;;;;;;5055929;28;20554;-61
2021/10/07 03:39:47;;;;;;;92.68;39.25;;;12.30;99.90;;;;;;5062320;28;20024;-62
2021/10/07 03:42:12;;;;;;;91.57;39.35;;;12.40;99.90;;;;;;5067115;28;20304;-61
2021/10/07 03:44:38;;;;;;;82.18;38.50;;;12.40;99.90;;;;;;5067764;28;20039;-59
2021/10/07 03:47:04;;;;;;;95.38;39.33;;;12.40;99.90;;;;;;5061971;28;20035;-61
2021/10/07 03:49:29;;;;;;;90.68;37.70;;;12.40;99.90;;;;;;5060604;28;20036;-63
2021/10/07 03:51:55;;;;;;;92.18;39.78;;;12.40;99.90;;;;;;5066679;28;20181;-61
2021/10/07 03:54:20;;;;;;;87.80;37.28;;;12.40;99.90;;;;;;5061472;28;20051;-61
2021/10/07 03:56:46;;;;;;;91.05;36.78;;;12.40;99.90;;;;;;5066561;28;20032;-60
2021/10/07 03:59:11;;;;;;;84.25;36.85;;;12.40;99.90;;;;;;5063996;28;20522;-63
2021/10/07 04:01:37;;;;;;;96.70;36.25;;;12.50;99.90;;;;;;5064171;28;20082;-62
2021/10/07 04:04:03;;;;;;;75.50;35.70;;;12.40;99.90;;;;;;5068482;28;20070;-61
2021/10/07 04:06:28;;;;;;;83.88;35.72;;;12.40;99.90;;;;;;5062748;28;20033;-61
2021/10/07 04:08:54;;;;;;;105.78;37.60;;;12.40;99.90;;;;;;5061230;28;20031;-61
2021/10/07 04:11:20;;;;;;;88.72;37.65;;;12.40;99.90;;;;;;5066764;28;20040;-62
2021/10/07 04:13:47;;;;;;;99.63;37.33;;;12.40;99.90;;;;;;5060829;28;20024;-60
2021/10/07 04:16:13;;;;;;;85.78;35.80;;;12.40;99.90;;;;;;5063008;28;20021;-62
2021/10/07 04:18:40;;;;;;;109.32;37.47;;;12.40;99.90;;;;;;5064594;28;20035;-60
2021/10/07 04:21:06;;;;;;;101.75;36.03;;;12.40;99.90;;;;;;5066315;28;20132;-59
2021/10/07 04:23:31;;;;;;;93.57;37.40;;;12.30;99.90;;;;;;5060372;28;20479;-60
2021/10/07 04:25:57;;;;;;;111.93;41.10;;;12.30;99.90;;;;;;5063074;28;20119;-61
2021/10/07 04:28:22;;;;;;;103.85;38.95;;;12.20;99.90;;;;;;5061560;28;20038;-61
2021/10/07 04:30:48;;;;;;;99.50;37.17;;;12.20;99.90;;;;;;5059216;28;20016;-62
2021/10/07 04:33:13;;;;;;;109.45;39.85;;;12.20;99.90;;;;;;5056847;28;20024;-63
2021/10/07 04:35:40;;;;;;;85.90;36.95;;;12.20;99.90;;;;;;5062004;28;20032;-60
2021/10/07 04:38:07;;;;;;;104.03;37.33;;;12.20;99.90;;;;;;5065386;28;20428;-58
2021/10/07 04:40:32;;;;;;;125.43;39.25;;;12.20;99.90;;;;;;5066983;28;20078;-61
2021/10/07 04:42:58;;;;;;;119.63;38.65;;;12.20;99.90;;;;;;5071500;28;20029;-63
2021/10/07 04:45:24;;;;;;;115.70;39.50;;;12.20;99.90;;;;;;5063669;28;20059;-61
2021/10/07 04:47:49;;;;;;;128.75;40.78;;;12.10;99.90;;;;;;5066352;28;20550;-61
2021/10/07 04:50:15;;;;;;;129.77;40.42;;;12.10;99.90;;;;;;5065400;28;20079;-59
2021/10/07 04:52:41;;;;;;;109.65;38.47;;;12.10;99.90;;;;;;5060371;28;20507;-63
2021/10/07 04:55:07;;;;;;;116.90;38.97;;;12.10;99.90;;;;;;5064932;28;20021;-63
2021/10/07 04:57:33;;;;;;;124.07;39.72;;;12.20;99.90;;;;;;5063068;28;20408;-62
2021/10/07 04:59:59;;;;;;;120.97;40.15;;;12.20;99.90;;;;;;5061659;28;20040;-62
2021/10/07 05:02:25;;;;;;;133.05;38.63;;;12.20;99.90;;;;;;5066434;28;20040;-61
2021/10/07 05:04:50;;;;;;;125.22;39.47;;;12.20;99.90;;;;;;5066635;28;20025;-62
2021/10/07 05:07:16;;;;;;;121.75;37.70;;;12.20;99.90;;;;;;5055606;28;20507;-59
2021/10/07 05:09:41;;;;;;;138.27;42.00;;;12.20;99.90;;;;;;5062709;28;20033;-60
2021/10/07 05:12:07;;;;;;;129.23;41.95;;;12.30;99.90;;;;;;5056845;28;20028;-63
2021/10/07 05:14:33;;;;;;;121.15;39.45;;;12.30;99.90;;;;;;5056869;28;20024;-61
2021/10/07 05:16:59;;;;;;;141.82;39.72;;;12.30;99.90;;;;;;5066706;28;20039;-62
2021/10/07 05:19:25;;;;;;;144.57;39.38;;;12.30;99.90;;;;;;5060607;28;20029;-63
2021/10/07 05:21:50;;;;;;;137.68;39.17;;;12.30;99.90;;;;;;5061711;28;20425;-58
2021/10/07 05:24:16;;;;;;;127.57;40.80;;;12.30;99.90;;;;;;5063020;28;20111;-61
2021/10/07 05:26:42;;;;;;;140.05;39.45;;;12.30;99.90;;;;;;5061636;28;20096;-61
2021/10/07 05:29:07;;;;;;;109.75;37.63;;;12.30;99.90;;;;;;5066421;28;20548;-59
2021/10/07 05:31:33;;;;;;;145.52;41.42;;;12.30;99.90;;;;;;5067993;28;20032;-62
2021/10/07 05:33:59;;;;;;;130.13;41.35;;;12.30;99.90;;;;;;5065379;28;20031;-62
2021/10/07 05:36:25;;;;;;;107.13;36.40;;;12.30;99.90;;;;;;5067998;28;20025;-60
2021/10/07 05:38:50;;;;;;;91.68;34.65;;;12.30;99.90;;;;;;5067798;28;20507;-61
2021/10/07 05:41:16;;;;;;;135.48;40.38;;;12.30;99.90;;;;;;5057380;28;20657;-61
2021/10/07 05:43:41;;;;;;;166.15;40.00;;;12.20;99.90;;;;;;5060164;28;20043;-60
2021/10/07 05:46:08;;;;;;;134.10;39.47;;;12.00;99.90;;;;;;5063471;28;20040;-62
2021/10/07 05:48:36;;;;;;;119.43;40.28;;;12.00;99.90;;;;;;5068126;28;20027;-59
2021/10/07 05:51:02;;;;;;;117.07;37.45;;;11.90;99.90;;;;;;5059640;28;20029;-61
2021/10/07 05:53:27;;;;;;;136.00;39.78;;;11.90;99.90;;;;;;5060526;28;20556;-61
2021/10/07 05:55:53;;;;;;;108.65;36.55;;;11.80;99.90;;;;;;5051704;28;20396;-61
2021/10/07 05:58:18;;;;;;;115.50;38.38;;;11.80;99.90;;;;;;5064965;28;20070;-57
2021/10/07 06:00:44;;;;;;;146.65;41.78;;;11.80;99.90;;;;;;5060440;28;20047;-62
2021/10/07 06:03:10;;;;;;;143.02;41.90;;;11.70;99.90;;;;;;5050831;28;20167;-61
2021/10/07 06:05:39;;;;;;;153.38;44.33;;;11.70;99.90;;;;;;5057008;28;20025;-60
2021/10/07 06:08:06;;;;;;;153.23;42.08;;;11.60;99.90;;;;;;5051108;28;20044;-60
2021/10/07 06:10:32;;;;;;;164.65;42.22;;;11.60;99.90;;;;;;5059669;28;20561;-61
2021/10/07 06:12:57;;;;;;;140.23;37.75;;;11.50;99.90;;;;;;5052032;28;20037;-60
2021/10/07 06:15:26;;;;;;;106.22;36.90;;;11.60;99.90;;;;;;5061595;28;20020;-60
2021/10/07 06:17:52;;;;;;;112.22;36.95;;;11.60;99.90;;;;;;5052614;28;20037;-61
2021/10/07 06:20:21;;;;;;;111.85;39.13;;;11.50;99.90;;;;;;5055477;28;20043;-56
2021/10/07 06:22:48;;;;;;;120.00;35.75;;;11.50;99.90;;;;;;5059748;28;20089;-63
2021/10/07 06:25:13;;;;;;;96.50;33.92;;;11.50;99.90;;;;;;5059153;28;20033;-56
2021/10/07 06:27:39;;;;;;;110.70;34.67;;;11.60;99.90;;;;;;5056196;28;20543;-59
2021/10/07 06:30:05;;;;;;;115.20;37.88;;;11.60;99.90;;;;;;5059281;28;20473;-60
2021/10/07 06:32:31;;;;;;;105.25;36.63;;;11.70;99.90;;;;;;5061187;28;20021;-59
2021/10/07 06:34:56;;;;;;;101.97;34.10;;;11.80;99.90;;;;;;5062054;28;20043;-61
2021/10/07 06:37:22;;;;;;;101.07;35.13;;;11.90;99.90;;;;;;5059204;28;20127;-61
2021/10/07 06:39:47;;;;;;;95.63;34.38;;;11.90;99.90;;;;;;5062123;28;20024;-61
2021/10/07 06:42:13;;;;;;;109.72;33.63;;;11.90;99.90;;;;;;5062713;28;20317;-58
2021/10/07 06:44:38;;;;;;;98.43;34.67;;;11.80;99.90;;;;;;5054621;28;20438;-61
2021/10/07 06:47:04;;;;;;;97.43;32.88;;;11.80;99.90;;;;;;5061319;28;20028;-61
2021/10/07 06:49:29;;;;;;;84.68;32.40;;;11.80;99.90;;;;;;5064131;28;20087;-60
2021/10/07 06:51:55;;;;;;;85.22;32.03;;;11.80;99.90;;;;;;5055841;28;20493;-60
2021/10/07 06:54:20;;;;;;;89.75;32.08;;;11.80;99.90;;;;;;5052684;28;20515;-61
2021/10/07 06:56:46;;;;;;;95.72;33.33;;;11.80;99.90;;;;;;5051000;28;20074;-60
2021/10/07 06:59:12;;;;;;;111.05;36.47;;;11.90;99.90;;;;;;5058664;28;20715;-60
2021/10/07 07:01:37;;;;;;;111.80;37.60;;;11.90;99.90;;;;;;5060521;28;20032;-59
2021/10/07 07:04:03;;;;;;;108.65;33.85;;;11.90;99.90;;;;;;5061082;28;20032;-59
2021/10/07 07:06:28;;;;;;;97.95;33.72;;;11.90;99.90;;;;;;5055535;28;20085;-60
2021/10/07 07:08:54;;;;;;;95.88;35.38;;;12.00;99.90;;;;;;5056572;28;20118;-58
2021/10/07 07:11:25;;;;;;;99.57;34.65;;;12.00;99.90;;;;;;5056043;28;20158;-62
2021/10/07 07:13:51;;;;;;;112.18;36.90;;;12.00;99.90;;;;;;5055332;28;20477;-62
2021/10/07 07:16:17;;;;;;;101.47;32.78;;;12.10;99.90;;;;;;5057519;28;20048;-61
2021/10/07 07:18:42;;;;;;;99.88;33.85;;;12.10;99.90;;;;;;5057671;28;20502;-62
2021/10/07 07:21:08;;;;;;;96.05;32.90;;;12.10;99.90;;;;;;5055854;28;20488;-63
2021/10/07 07:23:34;;;;;;;105.57;34.40;;;12.10;99.90;;;;;;5054362;28;20028;-62
2021/10/07 07:25:59;;;;;;;116.70;35.10;;;12.10;99.90;;;;;;5057618;28;20021;-61
2021/10/07 07:28:25;;;;;;;105.72;34.63;;;12.10;99.90;;;;;;5054511;28;20040;-57
2021/10/07 07:30:51;;;;;;;100.60;34.38;;;12.10;99.90;;;;;;5033338;28;20488;-55
2021/10/07 07:33:26;;;;;;;111.28;35.22;;;12.10;99.90;;;;;;5054802;28;20114;-57
2021/10/07 07:35:52;;;;;;;134.52;38.03;;;12.10;99.90;;;;;;5058304;28;20024;-56
2021/10/07 07:38:18;;;;;;;118.32;36.58;;;12.10;99.90;;;;;;5065665;28;20037;-56
2021/10/07 07:40:43;;;;;;;123.95;38.25;;;12.10;99.90;;;;;;5053440;28;20040;-59
2021/10/07 07:43:09;;;;;;;128.75;37.28;;;12.10;99.90;;;;;;5058752;28;20024;-54
2021/10/07 07:45:35;;;;;;;117.57;37.42;;;12.10;99.90;;;;;;5062117;28;20024;-57
2021/10/07 07:48:01;;;;;;;118.88;37.40;;;12.10;99.90;;;;;;5067934;28;20108;-59
2021/10/07 07:50:29;;;;;;;110.25;35.33;;;12.10;99.90;;;;;;5067163;28;20119;-59
2021/10/07 07:52:58;;;;;;;122.03;37.22;;;12.10;99.90;;;;;;5056409;28;20114;-56
2021/10/07 07:55:23;;;;;;;100.07;33.50;;;12.10;99.90;;;;;;5059250;28;20035;-57
2021/10/07 07:57:49;;;;;;;102.82;34.17;;;12.20;99.90;;;;;;5057621;28;20029;-58
2021/10/07 08:00:15;;;;;;;91.95;33.58;;;12.30;99.90;;;;;;5061050;28;20044;-63
2021/10/07 08:02:41;;;;;;;106.63;35.20;;;12.40;99.90;;;;;;5063897;28;20110;-57
2021/10/07 08:05:07;;;;;;;135.75;40.10;;;12.50;99.90;;;;;;5061845;28;20041;-58
2021/10/07 08:07:33;;;;;;;130.05;41.35;;;12.60;99.90;;;;;;5057461;28;20107;-54
2021/10/07 08:09:58;;;;;;;151.55;47.55;;;12.70;99.90;;;;;;5063231;28;20600;-56
2021/10/07 08:12:24;;;;;;;152.13;46.88;;;12.80;99.90;;;;;;5061517;28;20042;-59
2021/10/07 08:14:50;;;;;;;154.50;47.75;;;12.90;99.90;;;;;;5052387;28;20036;-59
2021/10/07 08:17:16;;;;;;;138.77;46.40;;;12.90;99.90;;;;;;5051113;28;20029;-56
2021/10/07 08:19:42;;;;;;;146.23;46.20;;;13.00;99.90;;;;;;5062364;28;20021;-57
2021/10/07 08:22:09;;;;;;;151.10;47.63;;;13.00;99.90;;;;;;5063862;28;20107;-57
2021/10/07 08:24:35;;;;;;;150.10;48.05;;;13.10;99.90;;;;;;5066022;28;20044;-57
2021/10/07 08:27:02;;;;;;;137.60;44.97;;;13.10;99.90;;;;;;5080461;28;20029;-60
2021/10/07 08:29:29;;;;;;;152.13;47.83;;;13.20;99.90;;;;;;5075915;28;20484;-60
2021/10/07 08:31:55;;;;;;;147.25;47.90;;;13.20;99.90;;;;;;5070555;28;20021;-57
2021/10/07 08:34:21;;;;;;;142.55;48.80;;;13.20;99.90;;;;;;5067094;28;20032;-60
2021/10/07 08:36:46;;;;;;;141.43;48.65;;;13.20;99.90;;;;;;5066930;28;20037;-59
2021/10/07 08:39:14;;;;;;;149.27;47.13;;;13.20;99.90;;;;;;5078682;28;20586;-59
2021/10/07 08:41:41;;;;;;;138.70;48.60;;;13.20;99.90;;;;;;5073396;28;20028;-62
2021/10/07 08:44:07;;;;;;;130.15;46.47;;;13.30;99.90;;;;;;5070023;28;20017;-60
2021/10/07 08:46:33;;;;;;;132.63;49.65;;;13.40;99.90;;;;;;5054134;28;20162;-61
2021/10/07 08:49:00;;;;;;;134.52;47.90;;;13.30;99.90;;;;;;5075752;28;20024;-61
2021/10/07 08:51:26;;;;;;;120.82;47.55;;;13.40;99.90;;;;;;5072944;28;20024;-60
2021/10/07 08:53:52;;;;;;;106.28;42.72;;;13.40;99.90;;;;;;5071922;28;20150;-55
2021/10/07 08:56:20;;;;;;;133.35;47.97;;;13.40;99.90;;;;;;5072424;28;20095;-56
2021/10/07 08:58:46;;;;;;;109.95;42.75;;;13.50;99.90;;;;;;5070356;28;20052;-60
2021/10/07 09:01:34;;;;;;;125.07;43.22;;;13.50;99.90;;;;;;5071358;28;20145;-58
2021/10/07 09:04:00;;;;;;;101.07;40.28;;;13.60;99.90;;;;;;5068804;28;20070;-60
2021/10/07 09:06:27;;;;;;;112.57;41.30;;;13.70;99.90;;;;;;5067932;28;20040;-59
2021/10/07 09:08:54;;;;;;;115.43;44.63;;;13.90;99.90;;;;;;5073165;28;20102;-57
2021/10/07 09:11:30;;;;;;;106.50;42.45;;;14.10;99.90;;;;;;5072376;28;20177;-56
2021/10/07 09:14:09;;;;;;;91.82;39.85;;;14.10;99.90;;;;;;5068044;28;20150;-54
2021/10/07 09:16:44;;;;;;;84.65;36.83;;;14.00;99.90;;;;;;5058365;23;20045;-57
2021/10/07 09:19:27;;;;;;;82.28;35.47;;;13.90;99.90;;;;;;5045671;28;20020;-57
2021/10/07 09:21:55;;;;;;;87.40;36.65;;;13.90;99.90;;;;;;5048283;28;20047;-59
2021/10/07 09:24:51;;;;;;;72.72;34.00;;;14.00;99.90;;;;;;5048343;28;20370;-60
2021/10/07 09:27:22;;;;;;;68.35;33.35;;;14.10;99.90;;;;;;5042906;28;20037;-58
2021/10/07 09:29:47;;;;;;;82.78;34.42;;;14.10;99.90;;;;;;5047029;28;20067;-59
2021/10/07 09:32:14;;;;;;;81.30;34.67;;;14.20;99.90;;;;;;5047774;28;20028;-61
2021/10/07 09:34:51;;;;;;;71.45;31.20;;;14.10;99.90;;;;;;5048257;28;20037;-58
2021/10/07 09:37:39;;;;;;;78.55;32.92;;;14.20;99.90;;;;;;5048363;28;20043;-59
2021/10/07 09:40:23;;;;;;;67.95;31.85;;;14.40;99.90;;;;;;5045724;28;20056;-58
2021/10/07 09:42:57;;;;;;;63.17;28.67;;;14.40;99.90;;;;;;5048030;28;20544;-58
2021/10/07 09:45:30;;;;;;;71.00;33.00;;;14.20;99.90;;;;;;5047333;28;20584;-60
2021/10/07 09:48:01;;;;;;;68.20;31.23;;;14.00;99.90;;;;;;5048539;28;20064;-59
2021/10/07 09:50:29;;;;;;;62.58;30.30;;;13.90;99.90;;;;;;5049198;28;20036;-59
2021/10/07 09:52:58;;;;;;;64.55;30.83;;;13.80;99.90;;;;;;5049347;28;20013;-58
2021/10/07 09:55:26;;;;;;;60.97;30.42;;;13.80;99.90;;;;;;5047809;28;20702;-59
2021/10/07 09:58:00;;;;;;;72.53;31.40;;;13.70;99.90;;;;;;5045950;28;20028;-58
2021/10/07 10:00:29;;;;;;;73.97;31.67;;;13.70;99.90;;;;;;5049279;28;20025;-59
2021/10/07 10:02:57;;;;;;;70.65;32.13;;;13.80;99.90;;;;;;5050046;28;20492;-60
2021/10/07 10:05:23;;;;;;;66.68;31.60;;;13.90;99.90;;;;;;5050633;28;20017;-59
2021/10/07 10:07:49;;;;;;;67.60;31.85;;;13.90;99.90;;;;;;5050153;28;20037;-59
2021/10/07 10:10:15;;;;;;;84.57;33.20;;;13.80;99.90;;;;;;5045488;28;20051;-59
2021/10/07 10:12:41;;;;;;;67.15;30.60;;;13.80;99.90;;;;;;5049227;28;20087;-59
2021/10/07 10:15:09;;;;;;;69.15;31.45;;;13.80;99.90;;;;;;5050804;28;20082;-58
2021/10/07 10:17:35;;;;;;;68.93;31.30;;;13.80;99.90;;;;;;5049877;28;20041;-59
2021/10/07 10:20:08;;;;;;;65.38;31.90;;;13.80;99.90;;;;;;5050368;28;20031;-58
2021/10/07 10:22:35;;;;;;;68.38;32.30;;;13.70;99.90;;;;;;5045035;28;20049;-60
2021/10/07 10:25:01;;;;;;;72.72;32.30;;;13.70;99.90;;;;;;5049409;28;20017;-60
2021/10/07 10:27:48;;;;;;;59.85;29.50;;;13.70;99.90;;;;;;5049662;28;20568;-58
2021/10/07 10:30:28;;;;;;;62.97;28.50;;;13.70;99.90;;;;;;5044655;28;20100;-59
2021/10/07 10:32:56;;;;;;;62.47;29.45;;;13.90;99.90;;;;;;5046869;28;20025;-59
2021/10/07 10:35:34;;;;;;;66.35;28.30;;;14.00;99.90;;;;;;5049869;28;20036;-58
2021/10/07 10:38:00;;;;;;;52.58;27.13;;;14.10;99.90;;;;;;5048434;28;20548;-57
2021/10/07 10:40:26;;;;;;;51.60;26.23;;;14.40;99.90;;;;;;5049255;28;20292;-59
2021/10/07 10:43:16;;;;;;;52.38;26.85;;;14.40;99.90;;;;;;5050175;28;20036;-59
2021/10/07 10:45:49;;;;;;;50.45;25.73;;;14.60;99.90;;;;;;5049454;28;20025;-59
2021/10/07 10:48:45;;;;;;;46.67;25.20;;;14.70;99.90;;;;;;5045710;28;20028;-58
2021/10/07 10:51:16;;;;;;;48.78;25.17;;;14.70;99.90;;;;;;5049457;28;20021;-60
2021/10/07 10:53:58;;;;;;;51.50;25.35;;;14.60;99.90;;;;;;5048525;28;20029;-58
2021/10/07 10:56:24;;;;;;;46.28;22.77;;;14.60;99.90;;;;;;5049200;28;20025;-57
2021/10/07 10:58:53;;;;;;;47.05;23.52;;;14.70;99.90;;;;;;5048977;28;20485;-59
2021/10/07 11:01:19;;;;;;;40.67;23.73;;;14.70;99.90;;;;;;5048298;28;20055;-58
2021/10/07 11:03:46;;;;;;;38.80;20.75;;;14.80;99.90;;;;;;5049063;28;20111;-59
2021/10/07 11:06:12;;;;;;;37.72;19.88;;;14.90;99.90;;;;;;5049330;28;20469;-59
2021/10/07 11:08:40;;;;;;;35.38;20.77;;;15.10;99.90;;;;;;5048074;28;20071;-58
2021/10/07 11:11:07;;;;;;;37.03;18.88;;;15.20;99.90;;;;;;5049547;28;20025;-57
2021/10/07 11:13:34;;;;;;;43.05;19.70;;;15.20;99.90;;;;;;5048667;28;20032;-58
2021/10/07 11:16:04;;;;;;;41.17;20.15;;;15.10;99.90;;;;;;5047956;28;20029;-59
2021/10/07 11:18:35;;;;;;;43.38;21.88;;;15.20;99.90;;;;;;5047257;28;20440;-59
2021/10/07 11:21:05;;;;;;;33.80;19.48;;;15.10;99.90;;;;;;5049454;28;20028;-60
2021/10/07 11:23:32;;;;;;;34.10;19.15;;;15.10;99.90;;;;;;5048113;28;20021;-58
2021/10/07 11:25:59;;;;;;;33.88;19.20;;;15.10;99.90;;;;;;5048909;28;20029;-58
2021/10/07 11:28:28;;;;;;;35.60;18.20;;;15.10;99.90;;;;;;5048968;28;20025;-59
2021/10/07 11:31:01;;;;;;;32.58;19.15;;;15.10;99.90;;;;;;5047948;28;20025;-58
2021/10/07 11:33:28;;;;;;;39.38;20.55;;;15.20;99.90;;;;;;5048166;28;20028;-59
2021/10/07 11:36:05;;;;;;;39.38;19.10;;;15.20;99.90;;;;;;5048230;28;20025;-59
2021/10/07 11:38:31;;;;;;;35.08;19.00;;;15.20;99.90;;;;;;5048662;28;20049;-56
2021/10/07 11:40:57;;;;;;;33.28;18.75;;;15.30;99.90;;;;;;5048780;28;20044;-58
2021/10/07 11:43:33;;;;;;;31.88;17.75;;;15.30;99.90;;;;;;5048756;28;20116;-58
2021/10/07 11:46:01;;;;;;;32.78;18.05;;;15.20;99.90;;;;;;5048148;28;20742;-58
2021/10/07 11:48:28;;;;;;;28.13;15.65;;;15.20;99.90;;;;;;5048488;28;20033;-60
2021/10/07 11:51:05;;;;;;;27.80;16.25;;;15.30;99.90;;;;;;5046680;28;20043;-59
2021/10/07 11:53:34;;;;;;;26.52;15.48;;;15.30;99.90;;;;;;5048687;28;20066;-56
2021/10/07 11:56:09;;;;;;;30.98;15.43;;;15.40;99.90;;;;;;5046035;28;20115;-58
2021/10/07 11:58:35;;;;;;;30.42;15.85;;;15.50;99.90;;;;;;5046504;28;20499;-59
2021/10/07 12:01:01;;;;;;;27.95;17.10;;;15.60;99.90;;;;;;5048701;28;20052;-59
2021/10/07 12:03:28;;;;;;;31.40;16.88;;;15.50;99.90;;;;;;5043664;28;20025;-59
2021/10/07 12:06:03;;;;;;;28.92;16.75;;;15.50;99.90;;;;;;5048811;28;20443;-61
2021/10/07 12:08:43;;;;;;;41.83;18.58;;;15.70;99.90;;;;;;5044907;28;20032;-58
2021/10/07 12:11:31;;;;;;;25.02;15.50;;;15.60;99.90;;;;;;5045752;28;20028;-59
2021/10/07 12:13:59;;;;;;;27.23;14.13;;;15.80;99.90;;;;;;5049409;28;20029;-59
2021/10/07 12:16:30;;;;;;;25.77;13.63;;;15.90;99.90;;;;;;5047833;28;20025;-59
2021/10/07 12:19:00;;;;;;;22.30;14.02;;;16.20;99.90;;;;;;5047878;28;20493;-57
2021/10/07 12:21:28;;;;;;;26.80;13.95;;;16.50;99.90;;;;;;5051382;28;20373;-59
2021/10/07 12:24:00;;;;;;;21.58;12.48;;;16.70;99.90;;;;;;5051807;28;20029;-59
2021/10/07 12:26:47;;;;;;;22.40;14.40;;;17.00;99.90;;;;;;5052715;28;20032;-58
2021/10/07 12:29:13;;;;;;;14.48;10.60;;;16.80;99.90;;;;;;5052342;28;20029;-58
2021/10/07 12:31:41;;;;;;;21.17;11.25;;;16.80;99.90;;;;;;5052336;28;20021;-59